Accueil
METAR-TAF:

METAR-TAF

Aéroports :

Sabadell, Espagne

latitude: 41-31N, longitude: 002-06E, altitude: 250 m

Observation

Le bulletin a été fait il y a 31 minutes, à 23:30 UTC
Vent 3 kt de ouest/nord-ouest, variant entre ouest et nord/nord-ouest
Température 18°C
Humidité 94%
Pression 1019 hPa
Visibilité: 7000 m

METAR: LELL 172330Z AUTO 29003KT 270V330 7000 NCD 18/17 Q1019

Heure: 02:01 (00:01 UTC)

Prévision

Le bulletin a été fait il y a 10 heures et 1 minutes, à 14:00 UTC
Prévision valable du 17 à 15 UTC au 18 à 15 UTC
Vent 10 kt de est/sud-est
Visibilité 10 km ou plus
pas de nuages en-dessous de 1500 mètres et pas de cumulonimbus.
Evoluant progressivement
du 17 à 18 UTC au 17 à 20 UTC
Vent 4 kt de direction variable

TAF: LELL 171400Z 1715/1815 12010KT CAVOK TX31/1813Z TN17/1805Z BECMG 1718/1720 VRB04KT

Observations et prévisions météorologiques de plus de 4000 aéroports (messages METAR et TAF).

Les stations disponibles sont représentées par des disques jaunes et rouges sur la carte.

Passer la souris dessus pour voir le nom de la station.

Cliquer dessus pour voir les observations et prévisions météorologiques.

Pour changer de carte: cliquez sur les boutons verts avec une croix noire pour zoomer, sur le bouton vert avec un tiret pour effectuer un zoom arrière, ou sur les flèches vertes pour les cartes adjacentes.


METAR-TAF: